Birlad, Romania

2:43 AM EEST on September 24, 2014 (GMT +0300)
Bacau | Change Station
CLOSE
Current Station
Airport
Location: Bacau,
Elevation: 607 ft
Nearby Weather Stations

Elev 607 ft 46.52 °N, 26.91 °E | Updated 43 minutes ago

Light Rain Showers
Light Showers Rain
52 °F
Feels Like 52 °F
N
7
Wind Variable Wind from NNW

Today
High -- | Low -- °F
--% Chance of Precip.
Yesterday
High -- | Low -- °F
Precip. -- in
6:58 AM 7:03 PM
Waning Crescent, 0% visible
Pressure 29.89 in
Visibility 6.2 miles
Clouds Mostly Cloudy 5000 ft
Dew Point 50 °F
Humidity 94%
Rainfall 0.00 in
Snow Depth Not available.
UV 0 out of 12
Pollen Not available.
Air Quality Not available.
Flu Activity Not available.
METAR LRBC 232300Z AUTO 34006KT 9999 -SHRA BKN050 11/10 Q1012

More Conditions Fewer Conditions

Pressure 29.89 in
Visibility 6.2 miles
Clouds Mostly Cloudy 5000 ft
Dew Point 50 °F
Humidity 94%
Rainfall 0.00 in
Snow Depth Not available.
UV 0 out of 12
Pollen Not available.
Air Quality Not available.
Flu Activity Not available.
METAR LRBC 232300Z AUTO 34006KT 9999 -SHRA BKN050 11/10 Q1012

More Conditions Fewer Conditions

10-Day Weather Forecast

Almanac

Astronomy

Sep. 24, 2014 Rise Set
Actual Time 6:58 AM EEST 7:03 PM EEST
Civil Twilight 6:28 AM EEST 7:33 PM EEST
Nautical Twilight 5:53 AM EEST 8:08 PM EEST
Astronomical Twilight 5:17 AM EEST 8:44 PM EEST
Moon 7:02 AM EEST (9/24) 7:00 PM EEST (9/24)
Length of Visible Light 13h 05m
Length of Day
12h 05m
Tomorrow will be 3m 15s shorter.
Waning Crescent, 0% of the Moon is Illuminated
Sep 23
Waning Crescent
Sep 24
New
Oct 1
First Quarter
Oct 8
Full
Oct 15
Last Quarter

Yesterday's Extremes

Country Highs Country Lows

Community

WunderPhotos

Upload Photos

1,755,821 photos uploaded!

WunderBlogs® & News

Nearby

Snow Depth

Not available.

Earthquake Activity

City Distance Mag. Time & Date
No recent earthquake activity has been reported nearby.
Minimum magnitude displayed is 2.5.

Coastal Water Temperatures

Place Temperature
No Stations Reporting

Nearby Weather Stations